sensor_id;sensor_type;location;lat;lon;timestamp;temperature;humidity
58339;DHT22;48278;52.704;6.536;2022-08-21T00:01:24;15.20;99.90
58339;DHT22;48278;52.704;6.536;2022-08-21T00:03:50;15.20;99.90
58339;DHT22;48278;52.704;6.536;2022-08-21T00:06:16;15.10;99.90
58339;DHT22;48278;52.704;6.536;2022-08-21T00:08:42;15.10;99.90
58339;DHT22;48278;52.704;6.536;2022-08-21T00:11:08;15.10;99.90
58339;DHT22;48278;52.704;6.536;2022-08-21T00:13:35;15.10;99.90
58339;DHT22;48278;52.704;6.536;2022-08-21T00:16:01;15.00;99.90
58339;DHT22;48278;52.704;6.536;2022-08-21T00:18:27;15.00;99.90
58339;DHT22;48278;52.704;6.536;2022-08-21T00:20:53;14.90;99.90
58339;DHT22;48278;52.704;6.536;2022-08-21T00:23:19;15.00;99.90
58339;DHT22;48278;52.704;6.536;2022-08-21T00:25:45;14.90;99.90
58339;DHT22;48278;52.704;6.536;2022-08-21T00:28:12;14.90;99.90
58339;DHT22;48278;52.704;6.536;2022-08-21T00:30:38;14.90;99.90
58339;DHT22;48278;52.704;6.536;2022-08-21T00:33:05;14.80;99.90
58339;DHT22;48278;52.704;6.536;2022-08-21T00:35:36;14.80;99.90
58339;DHT22;48278;52.704;6.536;2022-08-21T00:38:03;14.80;99.90
58339;DHT22;48278;52.704;6.536;2022-08-21T00:40:31;14.80;99.90
58339;DHT22;48278;52.704;6.536;2022-08-21T00:42:57;14.80;99.90
58339;DHT22;48278;52.704;6.536;2022-08-21T00:45:23;14.80;99.90
58339;DHT22;48278;52.704;6.536;2022-08-21T00:47:51;14.70;99.90
58339;DHT22;48278;52.704;6.536;2022-08-21T00:50:17;14.70;99.90
58339;DHT22;48278;52.704;6.536;2022-08-21T00:52:44;14.60;99.90
58339;DHT22;48278;52.704;6.536;2022-08-21T00:55:11;14.60;99.90
58339;DHT22;48278;52.704;6.536;2022-08-21T00:57:44;14.60;99.90
58339;DHT22;48278;52.704;6.536;2022-08-21T01:00:15;14.50;99.90
58339;DHT22;48278;52.704;6.536;2022-08-21T01:02:41;14.50;99.90
58339;DHT22;48278;52.704;6.536;2022-08-21T01:05:07;14.50;99.90
58339;DHT22;48278;52.704;6.536;2022-08-21T01:07:33;14.50;99.90
58339;DHT22;48278;52.704;6.536;2022-08-21T01:09:59;14.40;99.90
58339;DHT22;48278;52.704;6.536;2022-08-21T01:12:26;14.40;99.90
58339;DHT22;48278;52.704;6.536;2022-08-21T01:14:52;14.40;99.90
58339;DHT22;48278;52.704;6.536;2022-08-21T01:17:19;14.30;99.90
58339;DHT22;48278;52.704;6.536;2022-08-21T01:19:46;14.40;99.90
58339;DHT22;48278;52.704;6.536;2022-08-21T01:22:12;14.30;99.90
58339;DHT22;48278;52.704;6.536;2022-08-21T01:24:38;14.30;99.90
58339;DHT22;48278;52.704;6.536;2022-08-21T01:27:04;14.20;99.90
58339;DHT22;48278;52.704;6.536;2022-08-21T01:32:18;14.30;99.90
58339;DHT22;48278;52.704;6.536;2022-08-21T01:34:46;14.20;99.90
58339;DHT22;48278;52.704;6.536;2022-08-21T01:37:12;14.20;99.90
58339;DHT22;48278;52.704;6.536;2022-08-21T01:39:39;14.10;99.90
58339;DHT22;48278;52.704;6.536;2022-08-21T01:42:06;14.20;99.90
58339;DHT22;48278;52.704;6.536;2022-08-21T01:44:32;14.20;99.90
58339;DHT22;48278;52.704;6.536;2022-08-21T01:47:00;14.10;99.90
58339;DHT22;48278;52.704;6.536;2022-08-21T01:49:26;14.10;99.90
58339;DHT22;48278;52.704;6.536;2022-08-21T01:51:52;14.10;99.90
58339;DHT22;48278;52.704;6.536;2022-08-21T01:54:18;14.10;99.90
58339;DHT22;48278;52.704;6.536;2022-08-21T01:56:48;14.10;99.90
58339;DHT22;48278;52.704;6.536;2022-08-21T01:59:15;14.10;99.90
58339;DHT22;48278;52.704;6.536;2022-08-21T02:01:41;14.00;99.90
58339;DHT22;48278;52.704;6.536;2022-08-21T02:04:08;14.00;99.90
58339;DHT22;48278;52.704;6.536;2022-08-21T02:06:35;14.00;99.90
58339;DHT22;48278;52.704;6.536;2022-08-21T02:09:02;14.00;99.90
58339;DHT22;48278;52.704;6.536;2022-08-21T02:11:28;13.90;99.90
58339;DHT22;48278;52.704;6.536;2022-08-21T02:13:54;13.90;99.90
58339;DHT22;48278;52.704;6.536;2022-08-21T02:16:20;13.90;99.90
58339;DHT22;48278;52.704;6.536;2022-08-21T02:18:46;14.00;99.90
58339;DHT22;48278;52.704;6.536;2022-08-21T02:21:12;13.90;99.90
58339;DHT22;48278;52.704;6.536;2022-08-21T02:23:37;13.90;99.90
58339;DHT22;48278;52.704;6.536;2022-08-21T02:26:06;13.80;99.90
58339;DHT22;48278;52.704;6.536;2022-08-21T02:28:32;13.80;99.90
58339;DHT22;48278;52.704;6.536;2022-08-21T02:30:58;13.80;99.90
58339;DHT22;48278;52.704;6.536;2022-08-21T02:33:24;13.80;99.90
58339;DHT22;48278;52.704;6.536;2022-08-21T02:35:51;13.80;99.90
58339;DHT22;48278;52.704;6.536;2022-08-21T02:38:23;13.80;99.90
58339;DHT22;48278;52.704;6.536;2022-08-21T02:40:50;13.80;99.90
58339;DHT22;48278;52.704;6.536;2022-08-21T02:43:16;13.80;99.90
58339;DHT22;48278;52.704;6.536;2022-08-21T02:45:44;13.80;99.90
58339;DHT22;48278;52.704;6.536;2022-08-21T02:48:12;13.70;99.90
58339;DHT22;48278;52.704;6.536;2022-08-21T02:50:42;13.80;99.90
58339;DHT22;48278;52.704;6.536;2022-08-21T02:53:09;13.70;99.90
58339;DHT22;48278;52.704;6.536;2022-08-21T02:55:37;13.70;99.90
58339;DHT22;48278;52.704;6.536;2022-08-21T02:58:05;13.70;99.90
58339;DHT22;48278;52.704;6.536;2022-08-21T03:00:32;13.70;99.90
58339;DHT22;48278;52.704;6.536;2022-08-21T03:02:58;13.70;99.90
58339;DHT22;48278;52.704;6.536;2022-08-21T03:05:25;13.70;99.90
58339;DHT22;48278;52.704;6.536;2022-08-21T03:07:51;13.70;99.90
58339;DHT22;48278;52.704;6.536;2022-08-21T03:10:19;13.70;99.90
58339;DHT22;48278;52.704;6.536;2022-08-21T03:12:48;13.70;99.90
58339;DHT22;48278;52.704;6.536;2022-08-21T03:15:16;13.70;99.90
58339;DHT22;48278;52.704;6.536;2022-08-21T03:17:43;13.60;99.90
58339;DHT22;48278;52.704;6.536;2022-08-21T03:20:10;13.60;99.90
58339;DHT22;48278;52.704;6.536;2022-08-21T03:22:36;13.60;99.90
58339;DHT22;48278;52.704;6.536;2022-08-21T03:25:03;13.60;99.90
58339;DHT22;48278;52.704;6.536;2022-08-21T03:27:29;13.60;99.90
58339;DHT22;48278;52.704;6.536;2022-08-21T03:29:56;13.60;99.90
58339;DHT22;48278;52.704;6.536;2022-08-21T03:32:21;13.60;99.90
58339;DHT22;48278;52.704;6.536;2022-08-21T03:34:47;13.60;99.90
58339;DHT22;48278;52.704;6.536;2022-08-21T03:37:14;13.60;99.90
58339;DHT22;48278;52.704;6.536;2022-08-21T03:39:40;13.60;99.90
58339;DHT22;48278;52.704;6.536;2022-08-21T03:42:07;13.60;99.90
58339;DHT22;48278;52.704;6.536;2022-08-21T03:44:33;13.50;99.90
58339;DHT22;48278;52.704;6.536;2022-08-21T03:47:00;13.50;99.90
58339;DHT22;48278;52.704;6.536;2022-08-21T03:49:27;13.50;99.90
58339;DHT22;48278;52.704;6.536;2022-08-21T03:51:53;13.50;99.90
58339;DHT22;48278;52.704;6.536;2022-08-21T03:54:19;13.50;99.90
58339;DHT22;48278;52.704;6.536;2022-08-21T03:56:45;13.50;99.90
58339;DHT22;48278;52.704;6.536;2022-08-21T03:59:11;13.50;99.90
58339;DHT22;48278;52.704;6.536;2022-08-21T04:01:36;13.50;99.90
58339;DHT22;48278;52.704;6.536;2022-08-21T04:04:03;13.40;99.90
58339;DHT22;48278;52.704;6.536;2022-08-21T04:06:29;13.50;99.90
58339;DHT22;48278;52.704;6.536;2022-08-21T04:08:55;13.40;99.90
58339;DHT22;48278;52.704;6.536;2022-08-21T04:11:21;13.40;99.90
58339;DHT22;48278;52.704;6.536;2022-08-21T04:13:47;13.30;99.90
58339;DHT22;48278;52.704;6.536;2022-08-21T04:16:13;13.40;99.90
58339;DHT22;48278;52.704;6.536;2022-08-21T04:18:39;13.30;99.90
58339;DHT22;48278;52.704;6.536;2022-08-21T04:21:06;13.30;99.90
58339;DHT22;48278;52.704;6.536;2022-08-21T04:23:33;13.30;99.90
58339;DHT22;48278;52.704;6.536;2022-08-21T04:25:59;13.30;99.90
58339;DHT22;48278;52.704;6.536;2022-08-21T04:28:26;13.30;99.90
58339;DHT22;48278;52.704;6.536;2022-08-21T04:30:53;13.30;99.90
58339;DHT22;48278;52.704;6.536;2022-08-21T04:33:20;13.20;99.90
58339;DHT22;48278;52.704;6.536;2022-08-21T04:35:46;13.30;99.90
58339;DHT22;48278;52.704;6.536;2022-08-21T04:38:12;13.20;99.90
58339;DHT22;48278;52.704;6.536;2022-08-21T04:40:37;13.30;99.90
58339;DHT22;48278;52.704;6.536;2022-08-21T04:43:07;13.30;99.90
58339;DHT22;48278;52.704;6.536;2022-08-21T04:45:36;13.30;99.90
58339;DHT22;48278;52.704;6.536;2022-08-21T04:48:06;13.30;99.90
58339;DHT22;48278;52.704;6.536;2022-08-21T04:50:39;13.30;99.90
58339;DHT22;48278;52.704;6.536;2022-08-21T04:53:12;13.30;99.90
58339;DHT22;48278;52.704;6.536;2022-08-21T04:55:41;13.30;99.90
58339;DHT22;48278;52.704;6.536;2022-08-21T04:58:09;13.30;99.90
58339;DHT22;48278;52.704;6.536;2022-08-21T05:00:36;13.40;99.90
58339;DHT22;48278;52.704;6.536;2022-08-21T05:03:03;13.50;99.90
58339;DHT22;48278;52.704;6.536;2022-08-21T05:05:29;13.60;99.90
58339;DHT22;48278;52.704;6.536;2022-08-21T05:07:57;13.70;99.90
58339;DHT22;48278;52.704;6.536;2022-08-21T05:10:24;13.70;99.90
58339;DHT22;48278;52.704;6.536;2022-08-21T05:12:50;13.80;99.90
58339;DHT22;48278;52.704;6.536;2022-08-21T05:15:16;13.80;99.90
58339;DHT22;48278;52.704;6.536;2022-08-21T05:17:42;13.90;99.90
58339;DHT22;48278;52.704;6.536;2022-08-21T05:20:10;13.90;99.90
58339;DHT22;48278;52.704;6.536;2022-08-21T05:22:36;13.90;99.90
58339;DHT22;48278;52.704;6.536;2022-08-21T05:25:02;13.90;99.90
58339;DHT22;48278;52.704;6.536;2022-08-21T05:27:28;14.00;99.90
58339;DHT22;48278;52.704;6.536;2022-08-21T05:29:56;14.00;99.90
58339;DHT22;48278;52.704;6.536;2022-08-21T05:32:22;14.10;99.90
58339;DHT22;48278;52.704;6.536;2022-08-21T05:34:50;14.10;99.90
58339;DHT22;48278;52.704;6.536;2022-08-21T05:37:16;14.20;99.90
58339;DHT22;48278;52.704;6.536;2022-08-21T05:39:42;14.30;99.90
58339;DHT22;48278;52.704;6.536;2022-08-21T05:42:08;14.30;99.90
58339;DHT22;48278;52.704;6.536;2022-08-21T05:44:33;14.40;99.90
58339;DHT22;48278;52.704;6.536;2022-08-21T05:47:07;14.40;99.90
58339;DHT22;48278;52.704;6.536;2022-08-21T05:49:34;14.50;99.90
58339;DHT22;48278;52.704;6.536;2022-08-21T05:52:00;14.50;99.90
58339;DHT22;48278;52.704;6.536;2022-08-21T05:54:26;14.60;99.90
58339;DHT22;48278;52.704;6.536;2022-08-21T05:56:52;14.60;99.90
58339;DHT22;48278;52.704;6.536;2022-08-21T05:59:17;14.70;99.90
58339;DHT22;48278;52.704;6.536;2022-08-21T06:01:44;14.70;99.90
58339;DHT22;48278;52.704;6.536;2022-08-21T06:04:11;14.80;99.90
58339;DHT22;48278;52.704;6.536;2022-08-21T06:06:37;14.80;99.90
58339;DHT22;48278;52.704;6.536;2022-08-21T06:09:03;14.90;99.90
58339;DHT22;48278;52.704;6.536;2022-08-21T06:11:30;15.00;99.90
58339;DHT22;48278;52.704;6.536;2022-08-21T06:13:57;15.00;99.90
58339;DHT22;48278;52.704;6.536;2022-08-21T06:16:23;15.10;99.90
58339;DHT22;48278;52.704;6.536;2022-08-21T06:18:49;15.20;99.90
58339;DHT22;48278;52.704;6.536;2022-08-21T06:21:15;15.20;99.90
58339;DHT22;48278;52.704;6.536;2022-08-21T06:23:41;15.20;99.90
58339;DHT22;48278;52.704;6.536;2022-08-21T06:26:08;15.30;99.90
58339;DHT22;48278;52.704;6.536;2022-08-21T06:28:35;15.40;99.90
58339;DHT22;48278;52.704;6.536;2022-08-21T06:31:16;15.40;99.90
58339;DHT22;48278;52.704;6.536;2022-08-21T06:33:42;15.50;99.90
58339;DHT22;48278;52.704;6.536;2022-08-21T06:36:08;15.60;99.90
58339;DHT22;48278;52.704;6.536;2022-08-21T06:38:35;15.70;99.90
58339;DHT22;48278;52.704;6.536;2022-08-21T06:41:01;15.70;99.90
58339;DHT22;48278;52.704;6.536;2022-08-21T06:43:27;15.80;99.90
58339;DHT22;48278;52.704;6.536;2022-08-21T06:45:53;15.90;99.90
58339;DHT22;48278;52.704;6.536;2022-08-21T06:48:18;16.00;99.90
58339;DHT22;48278;52.704;6.536;2022-08-21T06:50:44;16.00;99.90
58339;DHT22;48278;52.704;6.536;2022-08-21T06:53:12;16.10;99.90
58339;DHT22;48278;52.704;6.536;2022-08-21T06:55:39;16.20;99.90
58339;DHT22;48278;52.704;6.536;2022-08-21T06:58:05;16.30;99.90
58339;DHT22;48278;52.704;6.536;2022-08-21T07:00:32;16.40;99.90
58339;DHT22;48278;52.704;6.536;2022-08-21T07:02:57;16.50;99.90
58339;DHT22;48278;52.704;6.536;2022-08-21T07:05:26;16.60;99.90
58339;DHT22;48278;52.704;6.536;2022-08-21T07:07:52;16.70;99.90
58339;DHT22;48278;52.704;6.536;2022-08-21T07:10:18;16.90;99.90
58339;DHT22;48278;52.704;6.536;2022-08-21T07:12:44;17.00;99.90
58339;DHT22;48278;52.704;6.536;2022-08-21T07:15:10;17.20;99.90
58339;DHT22;48278;52.704;6.536;2022-08-21T07:17:36;17.30;99.90
58339;DHT22;48278;52.704;6.536;2022-08-21T07:20:04;17.50;99.90
58339;DHT22;48278;52.704;6.536;2022-08-21T07:22:30;17.60;99.90
58339;DHT22;48278;52.704;6.536;2022-08-21T07:24:56;17.70;99.90
58339;DHT22;48278;52.704;6.536;2022-08-21T07:27:22;17.80;99.90
58339;DHT22;48278;52.704;6.536;2022-08-21T07:29:48;17.90;99.90
58339;DHT22;48278;52.704;6.536;2022-08-21T07:32:14;18.00;99.90
58339;DHT22;48278;52.704;6.536;2022-08-21T07:34:41;18.10;99.90
58339;DHT22;48278;52.704;6.536;2022-08-21T07:37:06;18.20;99.90
58339;DHT22;48278;52.704;6.536;2022-08-21T07:39:32;18.40;99.90
58339;DHT22;48278;52.704;6.536;2022-08-21T07:41:58;18.40;99.90
58339;DHT22;48278;52.704;6.536;2022-08-21T07:44:24;18.50;99.90
58339;DHT22;48278;52.704;6.536;2022-08-21T07:46:49;18.60;99.90
58339;DHT22;48278;52.704;6.536;2022-08-21T07:49:15;18.70;99.90
58339;DHT22;48278;52.704;6.536;2022-08-21T07:51:41;18.80;99.90
58339;DHT22;48278;52.704;6.536;2022-08-21T07:54:07;18.80;99.90
58339;DHT22;48278;52.704;6.536;2022-08-21T07:56:34;18.90;99.90
58339;DHT22;48278;52.704;6.536;2022-08-21T07:58:59;19.00;99.90
58339;DHT22;48278;52.704;6.536;2022-08-21T08:01:28;19.10;99.90
58339;DHT22;48278;52.704;6.536;2022-08-21T08:03:54;19.10;99.90
58339;DHT22;48278;52.704;6.536;2022-08-21T08:06:20;19.20;99.90
58339;DHT22;48278;52.704;6.536;2022-08-21T08:08:46;19.30;99.90
58339;DHT22;48278;52.704;6.536;2022-08-21T08:11:13;19.30;99.90
58339;DHT22;48278;52.704;6.536;2022-08-21T08:13:46;19.40;99.90
58339;DHT22;48278;52.704;6.536;2022-08-21T08:16:13;19.50;99.90
58339;DHT22;48278;52.704;6.536;2022-08-21T08:18:39;19.60;99.90
58339;DHT22;48278;52.704;6.536;2022-08-21T08:21:07;19.70;99.90
58339;DHT22;48278;52.704;6.536;2022-08-21T08:23:33;19.70;99.90
58339;DHT22;48278;52.704;6.536;2022-08-21T08:25:59;19.70;99.90
58339;DHT22;48278;52.704;6.536;2022-08-21T08:28:24;19.80;99.90
58339;DHT22;48278;52.704;6.536;2022-08-21T08:30:51;19.80;99.90
58339;DHT22;48278;52.704;6.536;2022-08-21T08:33:17;19.80;99.90
58339;DHT22;48278;52.704;6.536;2022-08-21T08:35:46;19.80;99.90
58339;DHT22;48278;52.704;6.536;2022-08-21T08:38:12;19.90;99.90
58339;DHT22;48278;52.704;6.536;2022-08-21T08:40:56;20.00;99.90
58339;DHT22;48278;52.704;6.536;2022-08-21T08:43:30;20.10;99.90
58339;DHT22;48278;52.704;6.536;2022-08-21T08:45:58;20.20;99.90
58339;DHT22;48278;52.704;6.536;2022-08-21T08:51:09;20.50;99.90
58339;DHT22;48278;52.704;6.536;2022-08-21T08:53:51;20.60;99.90
58339;DHT22;48278;52.704;6.536;2022-08-21T08:56:23;20.70;99.90
58339;DHT22;48278;52.704;6.536;2022-08-21T08:58:52;20.80;99.90
58339;DHT22;48278;52.704;6.536;2022-08-21T09:01:19;20.60;99.90
58339;DHT22;48278;52.704;6.536;2022-08-21T09:03:47;20.50;99.90
58339;DHT22;48278;52.704;6.536;2022-08-21T09:10:24;20.70;99.90
58339;DHT22;48278;52.704;6.536;2022-08-21T09:12:31;20.70;99.90
58339;DHT22;48278;52.704;6.536;2022-08-21T09:18:20;20.70;99.90
58339;DHT22;48278;52.704;6.536;2022-08-21T09:29:19;21.10;99.90
58339;DHT22;48278;52.704;6.536;2022-08-21T09:31:46;21.20;99.90
58339;DHT22;48278;52.704;6.536;2022-08-21T09:34:12;21.10;99.90
58339;DHT22;48278;52.704;6.536;2022-08-21T09:36:47;21.10;99.90
58339;DHT22;48278;52.704;6.536;2022-08-21T09:39:30;21.10;99.90
58339;DHT22;48278;52.704;6.536;2022-08-21T09:42:05;21.30;99.90
58339;DHT22;48278;52.704;6.536;2022-08-21T09:44:35;21.40;99.90
58339;DHT22;48278;52.704;6.536;2022-08-21T09:47:05;21.20;99.90
58339;DHT22;48278;52.704;6.536;2022-08-21T09:49:34;21.10;99.90
58339;DHT22;48278;52.704;6.536;2022-08-21T09:52:01;21.00;99.90
58339;DHT22;48278;52.704;6.536;2022-08-21T09:54:34;21.00;99.90
58339;DHT22;48278;52.704;6.536;2022-08-21T09:59:53;21.40;99.90
58339;DHT22;48278;52.704;6.536;2022-08-21T10:02:33;21.50;99.90
58339;DHT22;48278;52.704;6.536;2022-08-21T10:05:14;21.60;99.90
58339;DHT22;48278;52.704;6.536;2022-08-21T10:07:40;21.90;99.90
58339;DHT22;48278;52.704;6.536;2022-08-21T10:10:16;22.00;99.90
58339;DHT22;48278;52.704;6.536;2022-08-21T10:26:25;22.80;99.90
58339;DHT22;48278;52.704;6.536;2022-08-21T10:29:07;22.90;99.90
58339;DHT22;48278;52.704;6.536;2022-08-21T10:31:41;22.90;99.90
58339;DHT22;48278;52.704;6.536;2022-08-21T10:34:20;23.10;99.90
58339;DHT22;48278;52.704;6.536;2022-08-21T10:39:36;23.30;99.90
58339;DHT22;48278;52.704;6.536;2022-08-21T10:42:24;23.40;99.90
58339;DHT22;48278;52.704;6.536;2022-08-21T10:47:43;23.60;99.90
58339;DHT22;48278;52.704;6.536;2022-08-21T10:52:54;23.60;99.90
58339;DHT22;48278;52.704;6.536;2022-08-21T10:55:22;23.50;99.90
58339;DHT22;48278;52.704;6.536;2022-08-21T10:58:10;23.30;99.90
58339;DHT22;48278;52.704;6.536;2022-08-21T11:00:49;23.30;99.90
58339;DHT22;48278;52.704;6.536;2022-08-21T11:03:41;23.50;99.90
58339;DHT22;48278;52.704;6.536;2022-08-21T11:08:42;23.60;99.90
58339;DHT22;48278;52.704;6.536;2022-08-21T11:11:14;23.80;99.90
58339;DHT22;48278;52.704;6.536;2022-08-21T11:14:01;23.80;99.90
58339;DHT22;48278;52.704;6.536;2022-08-21T11:16:41;23.90;99.90
58339;DHT22;48278;52.704;6.536;2022-08-21T11:19:16;23.70;99.90
58339;DHT22;48278;52.704;6.536;2022-08-21T11:25:00;23.60;99.90
58339;DHT22;48278;52.704;6.536;2022-08-21T11:27:59;23.70;99.90
58339;DHT22;48278;52.704;6.536;2022-08-21T11:30:33;23.80;99.90
58339;DHT22;48278;52.704;6.536;2022-08-21T11:33:27;23.60;99.90
58339;DHT22;48278;52.704;6.536;2022-08-21T11:36:02;23.90;99.90
58339;DHT22;48278;52.704;6.536;2022-08-21T11:38:38;24.10;99.90
58339;DHT22;48278;52.704;6.536;2022-08-21T11:41:30;24.30;99.90
58339;DHT22;48278;52.704;6.536;2022-08-21T11:44:22;24.40;99.90
58339;DHT22;48278;52.704;6.536;2022-08-21T11:47:05;24.30;99.90
58339;DHT22;48278;52.704;6.536;2022-08-21T11:52:39;24.10;99.90
58339;DHT22;48278;52.704;6.536;2022-08-21T11:55:15;24.00;99.90
58339;DHT22;48278;52.704;6.536;2022-08-21T11:57:50;23.90;99.90
58339;DHT22;48278;52.704;6.536;2022-08-21T12:00:25;24.20;99.90
58339;DHT22;48278;52.704;6.536;2022-08-21T12:03:04;24.30;99.90
58339;DHT22;48278;52.704;6.536;2022-08-21T12:05:34;24.50;99.90
58339;DHT22;48278;52.704;6.536;2022-08-21T12:08:06;24.50;99.90
58339;DHT22;48278;52.704;6.536;2022-08-21T12:10:41;24.40;99.00
58339;DHT22;48278;52.704;6.536;2022-08-21T12:13:28;24.70;99.90
58339;DHT22;48278;52.704;6.536;2022-08-21T12:16:07;24.80;99.40
58339;DHT22;48278;52.704;6.536;2022-08-21T12:18:33;24.90;99.90
58339;DHT22;48278;52.704;6.536;2022-08-21T12:24:03;24.90;99.90
58339;DHT22;48278;52.704;6.536;2022-08-21T12:26:35;24.80;99.90
58339;DHT22;48278;52.704;6.536;2022-08-21T12:29:13;24.60;99.90
58339;DHT22;48278;52.704;6.536;2022-08-21T12:31:54;24.60;99.90
58339;DHT22;48278;52.704;6.536;2022-08-21T12:34:21;24.90;99.90
58339;DHT22;48278;52.704;6.536;2022-08-21T12:36:54;24.70;99.90
58339;DHT22;48278;52.704;6.536;2022-08-21T12:39:27;24.90;99.90
58339;DHT22;48278;52.704;6.536;2022-08-21T12:42:20;25.00;99.90
58339;DHT22;48278;52.704;6.536;2022-08-21T12:44:51;25.20;99.80
58339;DHT22;48278;52.704;6.536;2022-08-21T12:47:29;25.30;99.90
58339;DHT22;48278;52.704;6.536;2022-08-21T12:50:20;25.30;99.90
58339;DHT22;48278;52.704;6.536;2022-08-21T12:53:07;25.20;99.40
58339;DHT22;48278;52.704;6.536;2022-08-21T12:55:35;25.10;99.00
58339;DHT22;48278;52.704;6.536;2022-08-21T12:58:05;24.90;99.20
58339;DHT22;48278;52.704;6.536;2022-08-21T13:00:31;24.60;99.40
58339;DHT22;48278;52.704;6.536;2022-08-21T13:02:57;24.30;99.70
58339;DHT22;48278;52.704;6.536;2022-08-21T13:05:36;24.20;99.80
58339;DHT22;48278;52.704;6.536;2022-08-21T13:08:08;24.20;99.90
58339;DHT22;48278;52.704;6.536;2022-08-21T13:10:36;24.10;99.90
58339;DHT22;48278;52.704;6.536;2022-08-21T13:13:05;24.10;99.90
58339;DHT22;48278;52.704;6.536;2022-08-21T13:15:35;24.20;99.90
58339;DHT22;48278;52.704;6.536;2022-08-21T13:18:03;24.30;99.90
58339;DHT22;48278;52.704;6.536;2022-08-21T13:20:36;24.40;99.40
58339;DHT22;48278;52.704;6.536;2022-08-21T13:23:07;24.50;99.10
58339;DHT22;48278;52.704;6.536;2022-08-21T13:25:37;24.50;99.60
58339;DHT22;48278;52.704;6.536;2022-08-21T13:28:07;24.60;99.70
58339;DHT22;48278;52.704;6.536;2022-08-21T13:30:37;24.70;99.50
58339;DHT22;48278;52.704;6.536;2022-08-21T13:33:05;24.70;99.10
58339;DHT22;48278;52.704;6.536;2022-08-21T13:35:44;24.90;99.20
58339;DHT22;48278;52.704;6.536;2022-08-21T13:38:11;25.00;99.10
58339;DHT22;48278;52.704;6.536;2022-08-21T13:40:49;25.20;98.90
58339;DHT22;48278;52.704;6.536;2022-08-21T13:43:30;25.40;98.70
58339;DHT22;48278;52.704;6.536;2022-08-21T13:45:56;25.40;98.90
58339;DHT22;48278;52.704;6.536;2022-08-21T13:48:25;25.60;98.20
58339;DHT22;48278;52.704;6.536;2022-08-21T13:50:54;25.50;98.10
58339;DHT22;48278;52.704;6.536;2022-08-21T13:53:29;25.50;98.40
58339;DHT22;48278;52.704;6.536;2022-08-21T13:55:56;25.50;97.80
58339;DHT22;48278;52.704;6.536;2022-08-21T13:58:41;25.50;98.10
58339;DHT22;48278;52.704;6.536;2022-08-21T14:01:22;25.40;98.00
58339;DHT22;48278;52.704;6.536;2022-08-21T14:03:51;25.20;98.00
58339;DHT22;48278;52.704;6.536;2022-08-21T14:06:21;24.80;97.30
58339;DHT22;48278;52.704;6.536;2022-08-21T14:08:59;25.00;97.90
58339;DHT22;48278;52.704;6.536;2022-08-21T14:11:34;24.90;97.80
58339;DHT22;48278;52.704;6.536;2022-08-21T14:14:12;24.90;98.30
58339;DHT22;48278;52.704;6.536;2022-08-21T14:16:52;24.70;98.60
58339;DHT22;48278;52.704;6.536;2022-08-21T14:19:24;24.60;99.30
58339;DHT22;48278;52.704;6.536;2022-08-21T14:21:50;24.70;99.30
58339;DHT22;48278;52.704;6.536;2022-08-21T14:26:55;24.70;99.30
58339;DHT22;48278;52.704;6.536;2022-08-21T14:29:24;24.70;99.10
58339;DHT22;48278;52.704;6.536;2022-08-21T14:31:59;24.50;98.90
58339;DHT22;48278;52.704;6.536;2022-08-21T14:34:26;24.60;99.20
58339;DHT22;48278;52.704;6.536;2022-08-21T14:36:54;24.70;99.10
58339;DHT22;48278;52.704;6.536;2022-08-21T14:39:20;24.80;99.20
58339;DHT22;48278;52.704;6.536;2022-08-21T14:41:46;25.00;99.00
58339;DHT22;48278;52.704;6.536;2022-08-21T14:44:15;25.10;98.90
58339;DHT22;48278;52.704;6.536;2022-08-21T14:46:41;25.10;98.50
58339;DHT22;48278;52.704;6.536;2022-08-21T14:49:07;25.10;98.90
58339;DHT22;48278;52.704;6.536;2022-08-21T14:51:33;25.10;98.20
58339;DHT22;48278;52.704;6.536;2022-08-21T14:53:59;24.90;98.00
58339;DHT22;48278;52.704;6.536;2022-08-21T14:56:24;24.90;98.00
58339;DHT22;48278;52.704;6.536;2022-08-21T14:58:51;24.90;97.90
58339;DHT22;48278;52.704;6.536;2022-08-21T15:01:20;25.00;97.90
58339;DHT22;48278;52.704;6.536;2022-08-21T15:03:47;25.00;97.70
58339;DHT22;48278;52.704;6.536;2022-08-21T15:06:15;25.00;97.80
58339;DHT22;48278;52.704;6.536;2022-08-21T15:08:42;25.00;97.90
58339;DHT22;48278;52.704;6.536;2022-08-21T15:11:12;24.90;97.80
58339;DHT22;48278;52.704;6.536;2022-08-21T15:13:40;25.00;97.70
58339;DHT22;48278;52.704;6.536;2022-08-21T15:16:08;25.00;97.60
58339;DHT22;48278;52.704;6.536;2022-08-21T15:18:34;25.00;97.90
58339;DHT22;48278;52.704;6.536;2022-08-21T15:21:00;24.80;97.90
58339;DHT22;48278;52.704;6.536;2022-08-21T15:23:25;24.50;97.40
58339;DHT22;48278;52.704;6.536;2022-08-21T15:25:52;24.50;97.80
58339;DHT22;48278;52.704;6.536;2022-08-21T15:28:18;24.50;97.40
58339;DHT22;48278;52.704;6.536;2022-08-21T15:30:46;24.30;97.80
58339;DHT22;48278;52.704;6.536;2022-08-21T15:33:12;24.40;97.90
58339;DHT22;48278;52.704;6.536;2022-08-21T15:35:37;24.60;98.10
58339;DHT22;48278;52.704;6.536;2022-08-21T15:38:04;24.70;98.10
58339;DHT22;48278;52.704;6.536;2022-08-21T15:40:30;24.70;97.90
58339;DHT22;48278;52.704;6.536;2022-08-21T15:42:59;24.60;97.80
58339;DHT22;48278;52.704;6.536;2022-08-21T15:45:25;24.90;97.80
58339;DHT22;48278;52.704;6.536;2022-08-21T15:47:51;24.90;97.30
58339;DHT22;48278;52.704;6.536;2022-08-21T15:50:19;24.90;97.80
58339;DHT22;48278;52.704;6.536;2022-08-21T15:52:45;24.80;96.90
58339;DHT22;48278;52.704;6.536;2022-08-21T15:55:11;24.70;97.20
58339;DHT22;48278;52.704;6.536;2022-08-21T15:57:38;24.70;97.40
58339;DHT22;48278;52.704;6.536;2022-08-21T16:00:18;24.50;97.30
58339;DHT22;48278;52.704;6.536;2022-08-21T16:02:47;24.60;96.90
58339;DHT22;48278;52.704;6.536;2022-08-21T16:05:15;24.10;97.10
58339;DHT22;48278;52.704;6.536;2022-08-21T16:07:42;23.90;97.10
58339;DHT22;48278;52.704;6.536;2022-08-21T16:10:08;24.00;97.50
58339;DHT22;48278;52.704;6.536;2022-08-21T16:12:38;24.10;97.30
58339;DHT22;48278;52.704;6.536;2022-08-21T16:15:11;24.10;98.00
58339;DHT22;48278;52.704;6.536;2022-08-21T16:17:40;24.10;98.00
58339;DHT22;48278;52.704;6.536;2022-08-21T16:20:11;24.10;97.30
58339;DHT22;48278;52.704;6.536;2022-08-21T16:22:38;24.10;97.20
58339;DHT22;48278;52.704;6.536;2022-08-21T16:25:05;23.80;96.80
58339;DHT22;48278;52.704;6.536;2022-08-21T16:27:31;23.80;97.30
58339;DHT22;48278;52.704;6.536;2022-08-21T16:29:57;23.80;97.50
58339;DHT22;48278;52.704;6.536;2022-08-21T16:32:23;23.70;97.20
58339;DHT22;48278;52.704;6.536;2022-08-21T16:34:49;23.70;97.80
58339;DHT22;48278;52.704;6.536;2022-08-21T16:37:16;23.80;98.00
58339;DHT22;48278;52.704;6.536;2022-08-21T16:39:42;23.70;98.00
58339;DHT22;48278;52.704;6.536;2022-08-21T16:42:11;23.80;97.90